Time;durP1;ratioP1;P1;durP2;ratioP2;P2;SDS_P1;SDS_P2;PMS_P1;PMS_P2;Temp;Humidity;BMP_temperature;BMP_pressure;BME280_temperature;BME280_humidity;BME280_pressure;Samples;Min_cycle;Max_cycle;Signal;HPM_P1;HPM_P2
2024/01/27 00:02:19;;;;;;;12.57;5.80;;;;;;;;;;5042565;28;20641;-80
2024/01/27 00:04:45;;;;;;;11.13;5.60;;;;;;;;;;4981993;28;20541;-79
2024/01/27 00:07:11;;;;;;;8.80;5.23;;;;;;;;;;4971297;28;20197;-80
2024/01/27 00:09:38;;;;;;;10.70;6.30;;;;;;;;;;4909877;28;20216;-79
2024/01/27 00:12:04;;;;;;;11.37;6.97;;;;;;;;;;5059137;28;20188;-82
2024/01/27 00:14:30;;;;;;;19.20;11.40;;;;;;;;;;5053018;28;20238;-80
2024/01/27 00:16:56;;;;;;;19.27;10.37;;;;;;;;;;5066520;28;20201;-79
2024/01/27 00:19:22;;;;;;;15.13;9.43;;;;;;;;;;5070891;28;20190;-79
2024/01/27 00:21:49;;;;;;;15.07;7.53;;;;;;;;;;5037200;28;20217;-79
2024/01/27 00:24:15;;;;;;;14.33;7.13;;;;;;;;;;5068620;28;20197;-79
2024/01/27 00:26:42;;;;;;;11.57;6.40;;;;;;;;;;5055733;28;20267;-79
2024/01/27 00:29:08;;;;;;;14.73;6.27;;;;;;;;;;5069410;28;20181;-83
2024/01/27 00:31:34;;;;;;;11.17;5.43;;;;;;;;;;5056635;28;20662;-81
2024/01/27 00:34:00;;;;;;;10.73;4.60;;;;;;;;;;5069954;28;20530;-79
2024/01/27 00:36:27;;;;;;;8.70;4.13;;;;;;;;;;5054262;28;20213;-80
2024/01/27 00:38:53;;;;;;;8.90;4.40;;;;;;;;;;5051576;28;20189;-79
2024/01/27 00:41:19;;;;;;;11.67;4.93;;;;;;;;;;5068751;28;20200;-78
2024/01/27 00:43:46;;;;;;;9.80;4.60;;;;;;;;;;5066905;28;20192;-79
2024/01/27 00:46:12;;;;;;;8.83;3.73;;;;;;;;;;5072226;28;20333;-82
2024/01/27 00:48:38;;;;;;;7.50;4.23;;;;;;;;;;5052306;28;20256;-78
2024/01/27 00:51:05;;;;;;;7.33;3.97;;;;;;;;;;5066300;28;20177;-80
2024/01/27 00:53:31;;;;;;;8.20;3.50;;;;;;;;;;5064901;28;20567;-79
2024/01/27 00:55:57;;;;;;;9.20;3.57;;;;;;;;;;5053351;28;20246;-79
2024/01/27 00:58:23;;;;;;;6.77;3.73;;;;;;;;;;5044808;28;20189;-78
2024/01/27 01:00:49;;;;;;;7.10;3.70;;;;;;;;;;5050896;28;20594;-79
2024/01/27 01:03:15;;;;;;;9.27;3.70;;;;;;;;;;5068032;28;20200;-79
2024/01/27 01:05:41;;;;;;;9.87;3.20;;;;;;;;;;5067258;28;20208;-79
2024/01/27 01:08:08;;;;;;;11.73;3.97;;;;;;;;;;5063153;28;20321;-79
2024/01/27 01:10:34;;;;;;;8.63;3.30;;;;;;;;;;5071614;28;20325;-79
2024/01/27 01:13:00;;;;;;;7.10;4.13;;;;;;;;;;5050653;28;20226;-79
2024/01/27 01:15:26;;;;;;;8.33;3.63;;;;;;;;;;5051507;28;20263;-79
2024/01/27 01:17:52;;;;;;;7.77;3.60;;;;;;;;;;5069517;28;20181;-79
2024/01/27 01:20:19;;;;;;;6.37;3.70;;;;;;;;;;5070179;28;20190;-79
2024/01/27 01:22:45;;;;;;;7.73;3.77;;;;;;;;;;5070680;28;20602;-79
2024/01/27 01:25:11;;;;;;;10.30;4.23;;;;;;;;;;5052602;28;20783;-79
2024/01/27 01:27:37;;;;;;;8.40;4.37;;;;;;;;;;5052550;28;20414;-82
2024/01/27 01:30:03;;;;;;;9.40;4.07;;;;;;;;;;5051840;28;20591;-81
2024/01/27 01:32:30;;;;;;;9.80;4.00;;;;;;;;;;5068746;28;20189;-80
2024/01/27 01:34:56;;;;;;;6.10;3.77;;;;;;;;;;5053991;28;20681;-79
2024/01/27 01:37:22;;;;;;;7.87;3.90;;;;;;;;;;5053429;28;20207;-79
2024/01/27 01:39:48;;;;;;;13.00;4.33;;;;;;;;;;5051241;28;20181;-79
2024/01/27 01:42:14;;;;;;;8.13;3.90;;;;;;;;;;5050728;28;20185;-79
2024/01/27 01:44:40;;;;;;;13.30;5.83;;;;;;;;;;5051501;28;20235;-79
2024/01/27 01:47:08;;;;;;;10.13;4.47;;;;;;;;;;5034770;28;20217;-79
2024/01/27 01:49:34;;;;;;;8.87;4.10;;;;;;;;;;5067441;28;20201;-79
2024/01/27 01:52:00;;;;;;;10.87;4.40;;;;;;;;;;5051638;28;20672;-79
2024/01/27 01:54:27;;;;;;;8.80;4.30;;;;;;;;;;5070042;28;20189;-79
2024/01/27 01:56:55;;;;;;;6.23;3.70;;;;;;;;;;5052115;28;20205;-79
2024/01/27 01:59:21;;;;;;;8.57;3.87;;;;;;;;;;5071041;28;20287;-79
2024/01/27 02:01:47;;;;;;;7.23;3.40;;;;;;;;;;5051494;28;20191;-79
2024/01/27 02:04:14;;;;;;;6.17;3.73;;;;;;;;;;5037850;28;20196;-79
2024/01/27 02:06:40;;;;;;;7.80;3.77;;;;;;;;;;5068442;28;20478;-79
2024/01/27 02:09:06;;;;;;;10.50;3.80;;;;;;;;;;5069552;28;20189;-79
2024/01/27 02:11:32;;;;;;;9.30;3.97;;;;;;;;;;5068631;28;20185;-81
2024/01/27 02:13:58;;;;;;;6.90;4.13;;;;;;;;;;5052596;28;20189;-81
2024/01/27 02:16:24;;;;;;;6.07;3.80;;;;;;;;;;5069944;28;20328;-81
2024/01/27 02:18:50;;;;;;;6.50;3.50;;;;;;;;;;5064030;28;20189;-79
2024/01/27 02:21:17;;;;;;;8.03;3.50;;;;;;;;;;5050648;28;20314;-79
2024/01/27 02:23:43;;;;;;;4.87;3.50;;;;;;;;;;5049284;28;20544;-79
2024/01/27 02:26:09;;;;;;;7.57;4.00;;;;;;;;;;5049459;28;20236;-80
2024/01/27 02:28:35;;;;;;;8.63;4.27;;;;;;;;;;5051212;28;20664;-79
2024/01/27 02:31:02;;;;;;;7.60;4.00;;;;;;;;;;5052261;28;20645;-79
2024/01/27 02:33:28;;;;;;;11.20;4.30;;;;;;;;;;5068161;28;20188;-79
2024/01/27 02:35:55;;;;;;;7.47;4.03;;;;;;;;;;5070414;28;20355;-79
2024/01/27 02:38:21;;;;;;;8.23;4.20;;;;;;;;;;5053324;28;20177;-79
2024/01/27 02:40:47;;;;;;;9.63;3.90;;;;;;;;;;5036180;28;20242;-79
2024/01/27 02:43:13;;;;;;;7.93;4.00;;;;;;;;;;5064763;28;20629;-79
2024/01/27 02:45:39;;;;;;;12.10;4.20;;;;;;;;;;5065819;28;20201;-81
2024/01/27 02:48:05;;;;;;;6.50;3.70;;;;;;;;;;5052775;28;20208;-79
2024/01/27 02:50:31;;;;;;;7.07;3.47;;;;;;;;;;5069388;28;20177;-79
2024/01/27 02:52:57;;;;;;;8.57;4.13;;;;;;;;;;5067274;28;20191;-80
2024/01/27 02:55:24;;;;;;;7.53;3.60;;;;;;;;;;5018776;28;20197;-79
2024/01/27 02:57:50;;;;;;;6.03;3.30;;;;;;;;;;5068839;28;20188;-79
2024/01/27 03:00:17;;;;;;;5.90;3.10;;;;;;;;;;5066176;28;20237;-79
2024/01/27 03:02:43;;;;;;;6.03;3.53;;;;;;;;;;5064528;28;20203;-82
2024/01/27 03:05:09;;;;;;;10.37;4.00;;;;;;;;;;5050858;28;20208;-82
2024/01/27 03:07:35;;;;;;;8.80;3.90;;;;;;;;;;5071659;28;20753;-80
2024/01/27 03:10:02;;;;;;;10.20;4.07;;;;;;;;;;5041089;28;20257;-79
2024/01/27 03:12:28;;;;;;;8.27;3.93;;;;;;;;;;5045077;28;20190;-79
2024/01/27 03:14:54;;;;;;;7.47;3.73;;;;;;;;;;5057568;28;20678;-79
2024/01/27 03:17:20;;;;;;;7.93;3.57;;;;;;;;;;5080101;28;20858;-80
2024/01/27 03:19:46;;;;;;;5.67;3.50;;;;;;;;;;5053742;28;20192;-79
2024/01/27 03:22:13;;;;;;;5.07;3.60;;;;;;;;;;5067700;28;20302;-79
2024/01/27 03:24:39;;;;;;;8.60;3.50;;;;;;;;;;5043253;28;20200;-79
2024/01/27 03:27:05;;;;;;;5.97;3.07;;;;;;;;;;5049267;28;20216;-79
2024/01/27 03:29:31;;;;;;;5.30;3.20;;;;;;;;;;5052274;28;20177;-79
2024/01/27 03:31:57;;;;;;;7.73;3.30;;;;;;;;;;5033699;28;20271;-79
2024/01/27 03:34:24;;;;;;;9.43;3.73;;;;;;;;;;5052045;28;20204;-79
2024/01/27 03:36:51;;;;;;;10.27;3.70;;;;;;;;;;5053865;28;20346;-79
2024/01/27 03:39:17;;;;;;;6.60;3.30;;;;;;;;;;5052509;28;20645;-79
2024/01/27 03:41:43;;;;;;;5.93;3.57;;;;;;;;;;5069765;28;20191;-79
2024/01/27 03:44:11;;;;;;;7.47;3.13;;;;;;;;;;5071538;28;20276;-78
2024/01/27 03:46:39;;;;;;;4.90;3.10;;;;;;;;;;5054663;28;20220;-79
2024/01/27 03:49:05;;;;;;;7.13;4.03;;;;;;;;;;5036356;28;20182;-79
2024/01/27 03:51:31;;;;;;;5.30;3.20;;;;;;;;;;5070367;28;20181;-79
2024/01/27 03:53:57;;;;;;;9.20;3.57;;;;;;;;;;5037750;28;20185;-79
2024/01/27 03:56:23;;;;;;;8.33;3.90;;;;;;;;;;5070387;28;20251;-79
2024/01/27 03:58:49;;;;;;;4.97;3.50;;;;;;;;;;5071421;28;20247;-79
2024/01/27 04:01:15;;;;;;;7.40;4.10;;;;;;;;;;5051841;28;20476;-79
2024/01/27 04:03:42;;;;;;;6.67;3.53;;;;;;;;;;5050295;28;20564;-79
2024/01/27 04:06:08;;;;;;;8.10;4.13;;;;;;;;;;5049965;28;20201;-79
2024/01/27 04:08:34;;;;;;;13.20;4.10;;;;;;;;;;5070681;28;20181;-79
2024/01/27 04:11:00;;;;;;;11.20;5.10;;;;;;;;;;5043806;28;20619;-79
2024/01/27 04:13:26;;;;;;;7.93;4.20;;;;;;;;;;5065995;28;20189;-79
2024/01/27 04:15:53;;;;;;;10.70;4.23;;;;;;;;;;5068715;28;20201;-80
2024/01/27 04:18:19;;;;;;;9.40;4.80;;;;;;;;;;5069780;28;20188;-79
2024/01/27 04:20:46;;;;;;;7.67;4.13;;;;;;;;;;5068102;28;20248;-79
2024/01/27 04:23:12;;;;;;;6.80;3.60;;;;;;;;;;5048535;28;20269;-79
2024/01/27 04:25:38;;;;;;;8.93;4.33;;;;;;;;;;5071053;28;20208;-80
2024/01/27 04:28:05;;;;;;;11.27;4.23;;;;;;;;;;5052150;28;20216;-85
2024/01/27 04:30:31;;;;;;;8.47;4.30;;;;;;;;;;5036875;28;20181;-79
2024/01/27 04:32:58;;;;;;;9.63;4.33;;;;;;;;;;5062883;28;20217;-79
2024/01/27 04:35:24;;;;;;;9.00;5.23;;;;;;;;;;5054379;28;20204;-79
2024/01/27 04:37:51;;;;;;;10.87;5.43;;;;;;;;;;5070230;28;20227;-79
2024/01/27 04:40:17;;;;;;;10.43;5.57;;;;;;;;;;5072134;28;20191;-81
2024/01/27 04:42:43;;;;;;;10.37;5.50;;;;;;;;;;5051658;28;20572;-81
2024/01/27 04:45:10;;;;;;;9.40;5.00;;;;;;;;;;5070949;28;20200;-79
2024/01/27 04:47:36;;;;;;;12.07;4.97;;;;;;;;;;5069551;28;20226;-79
2024/01/27 04:50:03;;;;;;;10.07;5.40;;;;;;;;;;5071399;28;20290;-79
2024/01/27 04:52:31;;;;;;;7.73;4.97;;;;;;;;;;5037764;28;20193;-82
2024/01/27 04:54:58;;;;;;;10.23;4.93;;;;;;;;;;5070790;28;20185;-83
2024/01/27 04:57:24;;;;;;;9.10;5.00;;;;;;;;;;5057951;28;20190;-79
2024/01/27 04:59:50;;;;;;;11.53;5.90;;;;;;;;;;5069885;28;20177;-79
2024/01/27 05:02:16;;;;;;;11.60;6.00;;;;;;;;;;5053273;28;20184;-78
2024/01/27 05:04:42;;;;;;;9.90;5.40;;;;;;;;;;5051406;28;20189;-78
2024/01/27 05:07:09;;;;;;;11.27;5.63;;;;;;;;;;5053695;28;20223;-78
2024/01/27 05:09:37;;;;;;;10.03;5.93;;;;;;;;;;5049773;28;20661;-78
2024/01/27 05:12:04;;;;;;;10.07;5.80;;;;;;;;;;5037525;28;20178;-79
2024/01/27 05:14:30;;;;;;;12.60;6.13;;;;;;;;;;5066567;28;20579;-78
2024/01/27 05:16:56;;;;;;;10.70;5.90;;;;;;;;;;5051970;28;20426;-81
2024/01/27 05:19:22;;;;;;;15.27;5.83;;;;;;;;;;5067885;28;20177;-78
2024/01/27 05:21:48;;;;;;;12.77;5.37;;;;;;;;;;5062347;28;20185;-78
2024/01/27 05:24:14;;;;;;;8.97;5.07;;;;;;;;;;5042108;28;20201;-78
2024/01/27 05:26:41;;;;;;;15.27;7.07;;;;;;;;;;5069704;28;20215;-78
2024/01/27 05:29:08;;;;;;;14.93;7.40;;;;;;;;;;5070132;28;20185;-78
2024/01/27 05:31:35;;;;;;;16.83;7.57;;;;;;;;;;5051106;28;20189;-79
2024/01/27 05:34:01;;;;;;;13.30;7.40;;;;;;;;;;5063011;28;20267;-78
2024/01/27 05:36:27;;;;;;;8.50;6.07;;;;;;;;;;5058839;28;20224;-78
2024/01/27 05:38:53;;;;;;;8.17;5.43;;;;;;;;;;5068939;28;20177;-78
2024/01/27 05:41:19;;;;;;;11.40;5.37;;;;;;;;;;5050468;28;20181;-78
2024/01/27 05:43:46;;;;;;;8.83;5.07;;;;;;;;;;5068104;28;20192;-78
2024/01/27 05:46:12;;;;;;;9.80;5.37;;;;;;;;;;5068443;28;20834;-79
2024/01/27 05:48:38;;;;;;;9.50;4.90;;;;;;;;;;5053607;28;20182;-80
2024/01/27 05:51:04;;;;;;;8.23;4.53;;;;;;;;;;5051483;28;20185;-81
2024/01/27 05:53:30;;;;;;;7.40;4.30;;;;;;;;;;5042537;28;20205;-80
2024/01/27 05:55:57;;;;;;;8.87;5.33;;;;;;;;;;5028936;28;20193;-79
2024/01/27 05:58:23;;;;;;;9.37;5.17;;;;;;;;;;5040708;28;20200;-78
2024/01/27 06:00:49;;;;;;;6.30;4.60;;;;;;;;;;5069459;28;20185;-78
2024/01/27 06:03:16;;;;;;;9.27;4.80;;;;;;;;;;5044829;28;20295;-79
2024/01/27 06:05:43;;;;;;;8.33;4.57;;;;;;;;;;5049935;28;20228;-81
2024/01/27 06:08:09;;;;;;;8.73;4.50;;;;;;;;;;5054204;28;20205;-80
2024/01/27 06:10:36;;;;;;;13.03;5.60;;;;;;;;;;5048945;28;20702;-78
2024/01/27 06:13:03;;;;;;;9.30;5.07;;;;;;;;;;5051103;28;20188;-81
2024/01/27 06:15:29;;;;;;;10.90;5.57;;;;;;;;;;5050474;28;20296;-79
2024/01/27 06:17:55;;;;;;;10.73;5.20;;;;;;;;;;5070667;28;20181;-79
2024/01/27 06:20:21;;;;;;;11.03;4.70;;;;;;;;;;5068612;28;20556;-78
2024/01/27 06:22:48;;;;;;;12.40;5.30;;;;;;;;;;5051139;28;20276;-79
2024/01/27 06:25:14;;;;;;;11.43;5.37;;;;;;;;;;5040083;28;20206;-78
2024/01/27 06:27:44;;;;;;;9.13;5.03;;;;;;;;;;5069638;28;20324;-79
2024/01/27 06:30:10;;;;;;;9.57;5.30;;;;;;;;;;5051922;28;20235;-78
2024/01/27 06:32:38;;;;;;;13.47;6.17;;;;;;;;;;5054571;28;20232;-79
2024/01/27 06:35:05;;;;;;;14.37;6.33;;;;;;;;;;5068767;28;20220;-79
2024/01/27 06:37:31;;;;;;;13.13;6.30;;;;;;;;;;5052120;28;20200;-80
2024/01/27 06:39:57;;;;;;;12.50;6.17;;;;;;;;;;5051137;28;20794;-79
2024/01/27 06:42:23;;;;;;;11.83;5.70;;;;;;;;;;5050005;28;20195;-80
2024/01/27 06:44:49;;;;;;;8.27;4.80;;;;;;;;;;5054782;28;20189;-79
2024/01/27 06:47:15;;;;;;;10.17;5.03;;;;;;;;;;5085512;28;20272;-79
2024/01/27 06:49:42;;;;;;;9.90;4.70;;;;;;;;;;5069837;28;20225;-78
2024/01/27 06:52:08;;;;;;;6.87;4.40;;;;;;;;;;5062726;28;20289;-78
2024/01/27 06:54:36;;;;;;;8.70;4.20;;;;;;;;;;5041742;28;20211;-78
2024/01/27 06:57:02;;;;;;;9.20;4.73;;;;;;;;;;5060947;28;20213;-78
2024/01/27 06:59:28;;;;;;;8.53;4.90;;;;;;;;;;5050118;28;20277;-83
2024/01/27 07:01:54;;;;;;;7.77;4.83;;;;;;;;;;5050929;28;20196;-78
2024/01/27 07:04:20;;;;;;;9.63;5.47;;;;;;;;;;5057967;28;20633;-78
2024/01/27 07:06:47;;;;;;;8.47;5.47;;;;;;;;;;5042636;28;20221;-78
2024/01/27 07:09:13;;;;;;;8.50;4.73;;;;;;;;;;5051781;28;20185;-82
2024/01/27 07:11:39;;;;;;;8.50;5.00;;;;;;;;;;5048267;28;20260;-78
2024/01/27 07:14:06;;;;;;;8.63;5.17;;;;;;;;;;5048796;28;20712;-80
2024/01/27 07:16:33;;;;;;;11.40;5.63;;;;;;;;;;5051717;28;20209;-79
2024/01/27 07:19:00;;;;;;;5.90;4.87;;;;;;;;;;5068970;28;20182;-78
2024/01/27 07:21:28;;;;;;;11.53;5.50;;;;;;;;;;5063709;28;20185;-75
2024/01/27 07:23:55;;;;;;;11.10;5.50;;;;;;;;;;5061573;28;20739;-76
2024/01/27 07:26:21;;;;;;;14.07;6.87;;;;;;;;;;5068313;28;20247;-78
2024/01/27 07:28:47;;;;;;;10.73;6.30;;;;;;;;;;5031124;28;20620;-75
2024/01/27 07:31:14;;;;;;;13.60;6.63;;;;;;;;;;5060412;28;20621;-75
2024/01/27 07:33:41;;;;;;;15.23;6.57;;;;;;;;;;5062280;28;20173;-74
2024/01/27 07:36:07;;;;;;;12.73;6.63;;;;;;;;;;5068917;28;20219;-76
2024/01/27 07:38:33;;;;;;;11.20;6.50;;;;;;;;;;5066167;28;20189;-76
2024/01/27 07:40:59;;;;;;;10.93;6.10;;;;;;;;;;5067872;28;20173;-75
2024/01/27 07:43:27;;;;;;;12.73;6.50;;;;;;;;;;5064696;28;20222;-74
2024/01/27 07:45:54;;;;;;;11.53;6.00;;;;;;;;;;5064782;28;20213;-77
2024/01/27 07:48:20;;;;;;;10.70;5.90;;;;;;;;;;5063571;28;20225;-75
2024/01/27 07:50:48;;;;;;;12.00;6.00;;;;;;;;;;5044340;28;20178;-74
2024/01/27 07:53:15;;;;;;;9.37;5.23;;;;;;;;;;5063962;28;20189;-77
2024/01/27 07:55:41;;;;;;;10.30;5.43;;;;;;;;;;5065338;28;20201;-75
2024/01/27 07:58:07;;;;;;;11.87;5.80;;;;;;;;;;5072362;28;20192;-75
2024/01/27 08:00:33;;;;;;;8.47;5.70;;;;;;;;;;5066454;28;20189;-75
2024/01/27 08:02:59;;;;;;;10.23;6.30;;;;;;;;;;5067086;28;20255;-75
2024/01/27 08:05:26;;;;;;;12.70;5.87;;;;;;;;;;5058847;28;20763;-75
2024/01/27 08:07:52;;;;;;;9.53;5.93;;;;;;;;;;5070535;28;20300;-76
2024/01/27 08:10:18;;;;;;;9.37;5.50;;;;;;;;;;5066902;28;20194;-76
2024/01/27 08:12:45;;;;;;;12.30;6.17;;;;;;;;;;5065431;28;20173;-75
2024/01/27 08:15:12;;;;;;;8.43;5.73;;;;;;;;;;5068859;28;20200;-75
2024/01/27 08:17:38;;;;;;;9.67;6.30;;;;;;;;;;5073160;28;20216;-76
2024/01/27 08:20:05;;;;;;;9.33;5.87;;;;;;;;;;5067613;28;20191;-74
2024/01/27 08:22:31;;;;;;;10.63;6.40;;;;;;;;;;5066186;28;20361;-80
2024/01/27 08:24:58;;;;;;;11.10;6.33;;;;;;;;;;5031264;28;20189;-75
2024/01/27 08:27:24;;;;;;;10.90;6.63;;;;;;;;;;5069644;28;20201;-79
2024/01/27 08:29:50;;;;;;;9.30;6.37;;;;;;;;;;5053745;28;20260;-79
2024/01/27 08:32:16;;;;;;;11.83;6.90;;;;;;;;;;5069782;28;20185;-79
2024/01/27 08:34:42;;;;;;;12.00;6.87;;;;;;;;;;5053873;28;20892;-78
2024/01/27 08:37:16;;;;;;;14.13;8.00;;;;;;;;;;5077305;28;20196;-78
2024/01/27 08:39:42;;;;;;;15.47;8.20;;;;;;;;;;5070979;28;20208;-78
2024/01/27 08:42:08;;;;;;;18.07;8.47;;;;;;;;;;5071967;28;20636;-78
2024/01/27 08:44:34;;;;;;;13.53;8.60;;;;;;;;;;5066863;28;20605;-77
2024/01/27 08:47:00;;;;;;;15.67;9.33;;;;;;;;;;5029278;28;20256;-78
2024/01/27 08:49:26;;;;;;;14.83;8.80;;;;;;;;;;5059220;28;20178;-78
2024/01/27 08:51:53;;;;;;;11.30;8.07;;;;;;;;;;5033905;28;20181;-78
2024/01/27 08:54:19;;;;;;;11.60;7.60;;;;;;;;;;5067439;28;20230;-78
2024/01/27 08:56:45;;;;;;;10.47;7.10;;;;;;;;;;5069797;28;20209;-77
2024/01/27 08:59:11;;;;;;;10.80;7.37;;;;;;;;;;5050770;28;20273;-77
2024/01/27 09:01:37;;;;;;;14.70;7.60;;;;;;;;;;5065224;28;20497;-78
2024/01/27 09:04:04;;;;;;;14.43;7.73;;;;;;;;;;5060643;28;20787;-77
2024/01/27 09:06:30;;;;;;;11.90;7.13;;;;;;;;;;5054299;28;20218;-77
2024/01/27 09:08:56;;;;;;;12.00;7.93;;;;;;;;;;5067149;28;20185;-77
2024/01/27 09:11:23;;;;;;;14.53;7.50;;;;;;;;;;5063885;28;20267;-77
2024/01/27 09:13:51;;;;;;;13.30;7.83;;;;;;;;;;5057168;28;20177;-78
2024/01/27 09:16:18;;;;;;;16.00;8.67;;;;;;;;;;5044068;28;20225;-78
2024/01/27 09:18:44;;;;;;;17.63;9.50;;;;;;;;;;5066228;28;20379;-78
2024/01/27 09:21:10;;;;;;;18.30;9.30;;;;;;;;;;5043658;28;20211;-76
2024/01/27 09:23:36;;;;;;;16.77;9.37;;;;;;;;;;5065968;28;20181;-81
2024/01/27 09:26:03;;;;;;;18.17;9.47;;;;;;;;;;5045682;28;20282;-81
2024/01/27 09:28:29;;;;;;;15.47;8.77;;;;;;;;;;5068600;28;20176;-79
2024/01/27 09:30:55;;;;;;;18.77;9.50;;;;;;;;;;5055964;28;20220;-81
2024/01/27 09:33:23;;;;;;;14.60;9.23;;;;;;;;;;5074642;28;20552;-79
2024/01/27 09:35:52;;;;;;;15.93;8.83;;;;;;;;;;5059861;28;20209;-80
2024/01/27 09:38:18;;;;;;;14.67;7.93;;;;;;;;;;5054787;28;20703;-78
2024/01/27 09:40:44;;;;;;;14.20;7.03;;;;;;;;;;5060649;28;20236;-79
2024/01/27 09:43:14;;;;;;;13.03;6.40;;;;;;;;;;5068334;28;20602;-79
2024/01/27 09:45:40;;;;;;;11.20;6.43;;;;;;;;;;5060613;28;20701;-78
2024/01/27 09:48:08;;;;;;;9.97;5.73;;;;;;;;;;5055791;28;20212;-79
2024/01/27 09:50:34;;;;;;;13.67;6.30;;;;;;;;;;5065205;28;20177;-79
2024/01/27 09:53:00;;;;;;;11.63;7.40;;;;;;;;;;5053299;28;20197;-79
2024/01/27 09:55:27;;;;;;;12.67;8.00;;;;;;;;;;5074163;28;20224;-79
2024/01/27 09:57:53;;;;;;;11.47;6.47;;;;;;;;;;5072073;28;20185;-79
2024/01/27 10:00:19;;;;;;;11.17;5.97;;;;;;;;;;5037751;28;20193;-79
2024/01/27 10:02:46;;;;;;;10.50;6.30;;;;;;;;;;5059729;28;20653;-80
2024/01/27 10:05:13;;;;;;;10.27;5.80;;;;;;;;;;5070504;28;20201;-78
2024/01/27 10:07:40;;;;;;;11.00;6.00;;;;;;;;;;5068397;28;20204;-80
2024/01/27 10:10:06;;;;;;;13.40;6.03;;;;;;;;;;5042909;28;20458;-80
2024/01/27 10:12:34;;;;;;;11.77;5.97;;;;;;;;;;5031540;28;20189;-78
2024/01/27 10:15:00;;;;;;;12.87;5.80;;;;;;;;;;5049177;28;20185;-79
2024/01/27 10:17:32;;;;;;;10.50;5.50;;;;;;;;;;5034229;28;20193;-80
2024/01/27 10:20:04;;;;;;;12.50;5.43;;;;;;;;;;5066502;28;20185;-80
2024/01/27 10:22:41;;;;;;;10.47;5.83;;;;;;;;;;5052249;28;20276;-79
2024/01/27 10:25:08;;;;;;;12.77;5.40;;;;;;;;;;5056940;28;20216;-79
2024/01/27 10:27:34;;;;;;;10.40;5.20;;;;;;;;;;5070252;28;20330;-80
2024/01/27 10:30:00;;;;;;;11.43;5.00;;;;;;;;;;5072187;28;20188;-79
2024/01/27 10:32:27;;;;;;;9.87;5.17;;;;;;;;;;5053762;28;20188;-79
2024/01/27 10:35:08;;;;;;;10.87;4.67;;;;;;;;;;5051897;28;20307;-79
2024/01/27 10:37:34;;;;;;;10.70;4.80;;;;;;;;;;5075713;28;20637;-76
2024/01/27 10:40:04;;;;;;;11.63;5.27;;;;;;;;;;5074755;28;20204;-80
2024/01/27 10:42:30;;;;;;;9.57;4.70;;;;;;;;;;5067140;28;20181;-79
2024/01/27 10:45:00;;;;;;;10.93;5.27;;;;;;;;;;5053903;28;20192;-78
2024/01/27 10:47:30;;;;;;;10.07;4.80;;;;;;;;;;5065455;28;20637;-78
2024/01/27 10:49:57;;;;;;;13.13;4.90;;;;;;;;;;5051611;28;20618;-78
2024/01/27 10:52:28;;;;;;;11.43;5.20;;;;;;;;;;5070089;28;20181;-78
2024/01/27 10:55:00;;;;;;;10.27;5.00;;;;;;;;;;5068655;28;20185;-77
2024/01/27 10:57:27;;;;;;;12.50;5.27;;;;;;;;;;5087437;28;20189;-76
2024/01/27 10:59:54;;;;;;;10.40;4.87;;;;;;;;;;5054929;28;20235;-77
2024/01/27 11:02:21;;;;;;;9.60;5.13;;;;;;;;;;5086882;28;20193;-78
2024/01/27 11:04:49;;;;;;;9.20;4.90;;;;;;;;;;5083506;28;20246;-75
2024/01/27 11:07:16;;;;;;;10.03;4.67;;;;;;;;;;5080333;28;20220;-78
2024/01/27 11:09:43;;;;;;;9.10;4.47;;;;;;;;;;5071798;28;20173;-77
2024/01/27 11:12:10;;;;;;;11.27;4.73;;;;;;;;;;5055124;28;20204;-78
2024/01/27 11:14:36;;;;;;;10.43;4.80;;;;;;;;;;5059333;28;20189;-77
2024/01/27 11:17:02;;;;;;;7.83;4.40;;;;;;;;;;5072356;28;20208;-77
2024/01/27 11:19:28;;;;;;;14.53;5.07;;;;;;;;;;5073133;28;20200;-78
2024/01/27 11:22:02;;;;;;;9.87;4.60;;;;;;;;;;5072858;28;20247;-77
2024/01/27 11:24:28;;;;;;;11.90;4.30;;;;;;;;;;5073021;28;20645;-77
2024/01/27 11:27:20;;;;;;;8.33;3.97;;;;;;;;;;5074846;28;20684;-77
2024/01/27 11:29:49;;;;;;;8.17;4.27;;;;;;;;;;5075888;28;20208;-77
2024/01/27 11:32:16;;;;;;;11.30;4.33;;;;;;;;;;5075599;28;20257;-78
2024/01/27 11:34:43;;;;;;;12.43;4.30;;;;;;;;;;5081981;28;20546;-79
2024/01/27 11:37:13;;;;;;;9.63;4.43;;;;;;;;;;5077910;28;20295;-78
2024/01/27 11:39:39;;;;;;;13.70;5.30;;;;;;;;;;5056461;28;20189;-78
2024/01/27 11:42:09;;;;;;;11.73;5.13;;;;;;;;;;5057815;28;20181;-79
2024/01/27 11:44:36;;;;;;;12.07;5.40;;;;;;;;;;5075111;28;20181;-78
2024/01/27 11:47:02;;;;;;;8.53;4.97;;;;;;;;;;5074864;28;20217;-78
2024/01/27 11:49:28;;;;;;;12.57;4.93;;;;;;;;;;5055381;28;20217;-77
2024/01/27 11:51:55;;;;;;;8.63;4.20;;;;;;;;;;5037815;28;20235;-78
2024/01/27 11:54:21;;;;;;;8.23;3.60;;;;;;;;;;5058483;28;20625;-77
2024/01/27 11:56:47;;;;;;;8.57;3.63;;;;;;;;;;5071488;28;20220;-77
2024/01/27 11:59:13;;;;;;;10.93;3.83;;;;;;;;;;5069022;28;20238;-77
2024/01/27 12:01:39;;;;;;;9.67;3.43;;;;;;;;;;5071327;28;20625;-77
2024/01/27 12:04:06;;;;;;;8.90;3.40;;;;;;;;;;5073094;28;20197;-78
2024/01/27 12:06:32;;;;;;;10.57;3.13;;;;;;;;;;5081154;28;20365;-75
2024/01/27 12:08:58;;;;;;;10.27;3.30;;;;;;;;;;5079074;28;20229;-78
2024/01/27 12:11:30;;;;;;;7.87;3.30;;;;;;;;;;5074556;28;20182;-78
2024/01/27 12:13:56;;;;;;;8.17;3.40;;;;;;;;;;5070844;28;20184;-78
2024/01/27 12:16:22;;;;;;;10.53;3.23;;;;;;;;;;5052995;28;20209;-78
2024/01/27 12:18:53;;;;;;;10.40;3.20;;;;;;;;;;5071816;28;20680;-74
2024/01/27 12:21:20;;;;;;;7.83;3.10;;;;;;;;;;5057829;28;20554;-77
2024/01/27 12:24:04;;;;;;;12.83;3.40;;;;;;;;;;5070678;28;20185;-77
2024/01/27 12:26:31;;;;;;;12.40;3.50;;;;;;;;;;5059326;28;20221;-78
2024/01/27 12:28:57;;;;;;;10.30;3.20;;;;;;;;;;5079796;28;20728;-76
2024/01/27 12:31:24;;;;;;;9.03;3.30;;;;;;;;;;5088160;28;20188;-77
2024/01/27 12:33:51;;;;;;;10.53;2.83;;;;;;;;;;5060089;28;20189;-76
2024/01/27 12:36:18;;;;;;;10.17;3.63;;;;;;;;;;5073539;28;20548;-76
2024/01/27 12:38:47;;;;;;;7.50;3.03;;;;;;;;;;5072477;28;20197;-78
2024/01/27 12:41:13;;;;;;;7.10;3.07;;;;;;;;;;5071746;28;20195;-76
2024/01/27 12:43:39;;;;;;;8.07;2.77;;;;;;;;;;5060423;28;20231;-78
2024/01/27 12:46:05;;;;;;;9.17;2.70;;;;;;;;;;5077569;28;20205;-78
2024/01/27 12:48:32;;;;;;;9.30;2.83;;;;;;;;;;5073416;28;20210;-77
2024/01/27 12:50:58;;;;;;;6.67;2.50;;;;;;;;;;5072717;28;20187;-77
2024/01/27 12:53:24;;;;;;;9.33;3.10;;;;;;;;;;5070104;28;20183;-78
2024/01/27 12:55:50;;;;;;;8.97;3.17;;;;;;;;;;5075228;28;20205;-78
2024/01/27 12:58:16;;;;;;;10.07;2.90;;;;;;;;;;5073033;28;20237;-78
2024/01/27 13:00:42;;;;;;;9.23;3.07;;;;;;;;;;5070689;28;20526;-77
2024/01/27 13:03:08;;;;;;;8.77;2.50;;;;;;;;;;5071099;28;20212;-77
2024/01/27 13:05:34;;;;;;;6.67;2.37;;;;;;;;;;5072613;28;20633;-78
2024/01/27 13:08:01;;;;;;;8.10;2.67;;;;;;;;;;5073092;28;20549;-78
2024/01/27 13:10:27;;;;;;;4.33;2.13;;;;;;;;;;5072686;28;20185;-78
2024/01/27 13:12:53;;;;;;;7.93;2.50;;;;;;;;;;5071277;28;20181;-78
2024/01/27 13:15:19;;;;;;;7.03;2.20;;;;;;;;;;5075374;28;20197;-78
2024/01/27 13:17:46;;;;;;;8.37;2.30;;;;;;;;;;5069949;28;20205;-78
2024/01/27 13:20:12;;;;;;;8.80;2.50;;;;;;;;;;5070250;28;20323;-76
2024/01/27 13:22:38;;;;;;;7.97;2.20;;;;;;;;;;5068057;28;20192;-78
2024/01/27 13:25:05;;;;;;;8.83;2.10;;;;;;;;;;5071832;28;20326;-77
2024/01/27 13:27:34;;;;;;;7.43;2.50;;;;;;;;;;5071218;28;20303;-78
2024/01/27 13:30:00;;;;;;;11.47;2.53;;;;;;;;;;5068582;28;20757;-78
2024/01/27 13:32:26;;;;;;;7.80;2.47;;;;;;;;;;5070591;28;20185;-78
2024/01/27 13:34:52;;;;;;;7.07;2.40;;;;;;;;;;5069870;28;21525;-77
2024/01/27 13:37:19;;;;;;;6.80;2.33;;;;;;;;;;5071206;28;20271;-78
2024/01/27 13:39:45;;;;;;;5.97;2.10;;;;;;;;;;5051925;28;20246;-79
2024/01/27 13:42:11;;;;;;;6.97;2.03;;;;;;;;;;5070981;28;20625;-76
2024/01/27 13:44:37;;;;;;;7.97;2.30;;;;;;;;;;5066484;28;20245;-78
2024/01/27 13:47:04;;;;;;;9.23;2.20;;;;;;;;;;5069982;28;20217;-78
2024/01/27 13:49:32;;;;;;;7.70;2.23;;;;;;;;;;5073981;28;20249;-77
2024/01/27 13:51:58;;;;;;;9.03;2.27;;;;;;;;;;5069619;28;20205;-78
2024/01/27 13:54:24;;;;;;;10.67;2.40;;;;;;;;;;5069808;28;20182;-79
2024/01/27 13:56:50;;;;;;;5.50;1.97;;;;;;;;;;5074579;28;20223;-77
2024/01/27 13:59:16;;;;;;;4.63;1.80;;;;;;;;;;5078036;28;20219;-78
2024/01/27 14:01:42;;;;;;;6.03;1.97;;;;;;;;;;5070429;28;20190;-77
2024/01/27 14:04:08;;;;;;;6.73;2.20;;;;;;;;;;5071792;28;20186;-77
2024/01/27 14:06:35;;;;;;;6.07;1.90;;;;;;;;;;5067915;28;20925;-77
2024/01/27 14:09:02;;;;;;;5.83;1.93;;;;;;;;;;5068780;28;20274;-77
2024/01/27 14:11:29;;;;;;;4.97;1.87;;;;;;;;;;5066087;28;20269;-77
2024/01/27 14:13:55;;;;;;;8.30;2.10;;;;;;;;;;5068423;28;20186;-76
2024/01/27 14:16:23;;;;;;;6.43;1.90;;;;;;;;;;5069482;28;20220;-76
2024/01/27 14:18:49;;;;;;;6.33;2.00;;;;;;;;;;5068726;28;20177;-73
2024/01/27 14:21:15;;;;;;;6.43;1.97;;;;;;;;;;5069486;28;20239;-77
2024/01/27 14:23:41;;;;;;;9.03;1.80;;;;;;;;;;5069637;28;20188;-78
2024/01/27 14:26:14;;;;;;;4.30;1.63;;;;;;;;;;5073328;28;20273;-78
2024/01/27 14:28:41;;;;;;;3.87;1.60;;;;;;;;;;5070378;28;20189;-77
2024/01/27 14:31:07;;;;;;;4.70;1.53;;;;;;;;;;5064250;28;20207;-76
2024/01/27 14:33:34;;;;;;;7.90;1.73;;;;;;;;;;5068218;28;20196;-77